Tiempo atmosférico en la estación meteorológica de Areso, Navarra (520 m.)



Fecha
DESCASC
Temp. máxima en grados centígrados (hora)
DESCASC
Temp. mínima en grados centígrados (hora)
DESCASC
Temp. media en grados centígrados
DESCASC
Racha de viento máxima en m/sg (hora)
DESCASC
Velocidad máxima media en intervalos de 10 minutos(hora)
DESCASC
Precipitaciones diarias en mm
DESCASC
Precipitaciones de 00:00 a 06:00 en mm
DESCASC
Precipitaciones de 06:00 a 12:00 en mm
DESCASC
Precipitaciones de 12:00 a 18:00 en mm
DESCASC
Precipitaciones de 18:00 a 24:00 en mm
DESCASC
04-03-2021 15.5 (14:50) 7.1 (23:40) 11.3 10.28 (09:30) 5.56 (11:30) 0 0 0 0 0
03-03-2021 16.1 (15:10) 9.6 (03:20) 12.9 12.78 (00:50) 6.11 (00:50) 0 0 0 0 0
02-03-2021 12.9 (14:10) 9.1 (04:30) 11 18.33 (03:00) 11.11 (02:40) 0 0 0 0 0
01-03-2021 12.1 (15:00) 8.5 (02:10) 10.3 17.5 (03:20) 11.11 (12:20) 0 0 0 0 0
28-02-2021 9.6 (17:30) 3.3 (00:00) 6.5 13.61 (21:50) 6.39 (21:30) 6 0 0 1.4 4.6
27-02-2021 11.4 (13:30) 5.3 (00:00) 8.3 8.06 (15:30) 2.78 (15:30) 0 0 0 0 0
26-02-2021 11.9 (14:50) 8.1 (00:00) 10 4.72 (16:00) 2.22 (16:20) 0 0 0 0 0
25-02-2021 13.9 (16:00) 9.4 (00:00) 11.6 16.94 (03:20) 11.11 (03:00) 0 0 0 0 0
24-02-2021 16.1 (16:30) 10.8 (00:00) 13.5 18.61 (13:40) 10.83 (13:40) 0 0 0 0 0
23-02-2021 14.5 (16:00) 5.4 (00:00) 10 21.39 (13:10) 10.28 (13:00) 0 0 0 0 0
22-02-2021 7.8 (00:00) 4.3 (00:00) 6.1 5.83 (00:10) 2.5 (23:59) 46.4 24.8 18.6 2 1
21-02-2021 14.5 (12:20) 7.8 (00:00) 11.2 21.94 (01:10) 8.61 (15:00) 2.8 0 0 0 2.8
20-02-2021 19.7 (15:20) 13.3 (00:00) 16.5 19.72 (13:50) 9.17 (04:00) 0 0 0 0 0
19-02-2021 17.5 (16:10) 8.3 (00:00) 12.9 16.67 (23:59) 8.61 (22:30) 0 0 0 0 0
18-02-2021 17 (14:00) 8.1 (00:00) 12.6 15.28 (00:10) 7.22 (00:40) 0 0 0 0 0
17-02-2021 15.9 (14:10) 6.8 (00:00) 11.3 15.83 (23:10) 6.94 (23:50) 0 0 0 0 0
16-02-2021 14.9 (14:20) 7.2 (00:00) 11 20.83 (09:50) 12.78 (09:50) 0 0 0 0 0
15-02-2021 11.9 (15:30) 7.2 (00:00) 9.5 20 (18:10) 11.67 (23:59) 0 0 0 0 0
14-02-2021 13.5 (15:40) 3.4 (00:00) 8.5 18.33 (23:00) 9.17 (22:30) 0.2 0 0 0.2 0
13-02-2021 12.6 (16:50) 4.1 (00:00) 8.4 4.17 (00:20) 1.67 (12:30) 0 0 0 0 0
12-02-2021 12.4 (00:20) 8.4 (00:00) 10.4 13.89 (04:10) 8.61 (04:30) 31.2 0.2 9.8 18.8 2.4
11-02-2021 16.1 (15:30) 3 (00:00) 9.6 9.17 (22:30) 4.72 (21:10) 0 0 0 0 0
10-02-2021 8.6 (17:10) 4.9 (00:00) 6.8 8.06 (03:00) 4.17 (01:40) 2.8 1 1.4 0.4 0
09-02-2021 9.8 (17:20) 5 (00:00) 7.4 16.39 (11:10) 8.06 (11:20) 1.8 0 0 1.8 0
08-02-2021 11.3 (16:00) 5.2 (00:00) 8.3 8.06 (05:30) 4.72 (05:00) 15.8 0.6 12.2 3 0
07-02-2021 8.5 (16:00) 3.1 (00:00) 5.8 5.28 (00:10) 2.78 (12:50) 8 4.4 2 0.2 1.4
06-02-2021 8.9 (13:40) 3.7 (00:00) 6.3 10 (14:40) 3.33 (14:30) 26.6 0.2 4.6 17.2 4.6
05-02-2021 12.8 (16:00) 7.9 (00:00) 10.4 3.89 (16:50) 1.67 (16:50) 0.8 0.4 0 0 0.4
04-02-2021 14.6 (16:40) 9.7 (00:00) 12.2 8.61 (04:10) 4.72 (09:50) 0.6 0.2 0.2 0.2 0

Gráficas

Temp. máximas Temp. mínimas Temp. medias Precipitaciones Rachas de viento máximas Velocidades máximas media en intervalos de 10 minutos

Datos horarios

Fecha y hora oficial Temperatura (ºC) Velocidad del viento (km/h) Dirección del viento Racha (km/h) Dirección de racha Precipitación (mm) Presión (hPa) Tendencia (hPa) Humedad (%)
2021-03-05 23:00:00 6.3 2 Este 6 Nordeste 0 -- -- 97
2021-03-05 22:00:00 6.3 0 Calma 10 Oeste 0 -- -- 96
2021-03-05 21:00:00 6.3 0 Calma 8 Noroeste 0 -- -- 95
2021-03-05 20:00:00 6.9 3 Noroeste 9 Noroeste 0 -- -- 95
2021-03-05 19:00:00 7.2 0 Calma 9 Oeste 0 -- -- 99
2021-03-05 18:00:00 7.5 2 Este 10 Este 0 -- -- 100
2021-03-05 17:00:00 7.8 4 Sur 7 Oeste 0 -- -- 100
2021-03-05 16:00:00 8.1 2 Oeste 8 Sur 0.2 -- -- 100
2021-03-05 15:00:00 8.3 0 Calma 13 Noroeste 0 -- -- 100
2021-03-05 14:00:00 8.5 4 Noroeste 12 Noroeste 0.2 -- -- 99
2021-03-05 13:00:00 8.9 3 Este 12 Noroeste 0 -- -- 98
2021-03-05 12:00:00 9 0 Calma 8 Este 0 -- -- 95
2021-03-05 11:00:00 8.9 4 Este 9 Nordeste 0 -- -- 95
2021-03-05 10:00:00 7.3 0 Calma 2 Sudeste 0 -- -- 100
2021-03-05 09:00:00 5.8 0 Calma -- -- 0 -- -- 100
2021-03-05 08:00:00 5.3 0 Calma 0 Calma 0 -- -- 100
2021-03-05 07:00:00 5.7 0 Calma 0 Calma 0 -- -- 100
2021-03-05 06:00:00 6 0 Calma 2 Nordeste 0 -- -- 99
2021-03-05 05:00:00 6.4 0 Calma 2 Nordeste 0 -- -- 99
2021-03-05 04:00:00 6.2 0 Calma 5 Noroeste 0 -- -- 99
2021-03-05 03:00:00 6 0 Calma 2 Sur 0 -- -- 99
2021-03-05 02:00:00 6.2 0 Calma -- -- 0 -- -- 98
2021-03-05 01:00:00 6.6 0 Calma 0 Calma 0 -- -- 96
2021-03-05 00:00:00 7.2 0 Calma 0 Calma 0 -- -- 93
2021-03-04 23:00:00 7.6 0 Calma 2 Sudoeste 0 -- -- 91
2021-03-04 22:00:00 8.3 0 Calma 2 Sudoeste 0 -- -- 89
2021-03-04 21:00:00 9 0 Calma 0 Calma 0 -- -- 85
2021-03-04 20:00:00 10.4 0 Calma 4 Oeste 0 -- -- 80
2021-03-04 19:00:00 12.2 2 Noroeste 14 Oeste 0 -- -- 72
2021-03-04 18:00:00 14.1 7 Oeste 12 Oeste 0 -- -- 64
2021-03-04 17:00:00 15.1 9 Sudoeste 15 Sudoeste 0 -- -- 60
2021-03-04 16:00:00 15.4 10 Sudoeste 17 Sudoeste 0 -- -- 59
2021-03-04 15:00:00 15.5 9 Sudoeste 19 Sudoeste 0 -- -- 59
2021-03-04 14:00:00 14.7 12 Sudoeste 23 Sudoeste 0 -- -- 61
2021-03-04 13:00:00 13.8 10 Sur 30 Sudoeste 0 -- -- 65
2021-03-04 12:00:00 12.6 18 Sudoeste 36 Sudoeste 0 -- -- 70
2021-03-04 11:00:00 11.7 16 Sudoeste 34 Sur 0 -- -- 72
2021-03-04 10:00:00 11 10 Sudoeste 37 Sudoeste 0 -- -- 75
2021-03-04 09:00:00 9.9 14 Sudoeste 29 Sudoeste 0 -- -- 79
2021-03-04 08:00:00 9.5 14 Sudoeste 29 Sudoeste 0 -- -- 80
2021-03-04 07:00:00 9.7 11 Sudoeste 31 Oeste 0 -- -- 81
2021-03-04 06:00:00 9.9 12 Sudoeste 35 Sudoeste 0 -- -- 81
2021-03-04 05:00:00 10 15 Sudoeste 27 Sudoeste 0 -- -- 80
2021-03-04 04:00:00 10.2 10 Sudoeste 26 Oeste 0 -- -- 80
2021-03-04 03:00:00 10.4 14 Sudoeste 26 Sudoeste 0 -- -- 80
2021-03-04 02:00:00 10.4 4 Oeste 18 Oeste 0 -- -- 81
2021-03-04 01:00:00 10.6 4 Norte 12 Este 0 -- -- 79
2021-03-04 00:00:00 10.6 5 Noroeste 13 Oeste 0 -- -- 78
2021-03-03 23:00:00 11 4 Oeste 17 Oeste 0 -- -- 77
2021-03-03 22:00:00 11.2 6 Oeste 20 Noroeste 0 -- -- 78
2021-03-03 21:00:00 11.6 4 Oeste 24 Sudoeste 0 -- -- 76
2021-03-03 20:00:00 11.9 10 Oeste 23 Sur 0 -- -- 76
2021-03-03 19:00:00 12.5 12 Sudoeste 25 Sudoeste 0 -- -- 72
2021-03-03 18:00:00 13.9 13 Sudoeste 22 Sur 0 -- -- 65
2021-03-03 17:00:00 15.5 12 Sudoeste 20 Sudoeste 0 -- -- 61
2021-03-03 16:00:00 15.8 5 Sudoeste 18 Sudoeste 0 -- -- 63
2021-03-03 15:00:00 16 10 Sudoeste 20 Sudoeste 0 -- -- 60
2021-03-03 14:00:00 15.6 9 Sur 22 Sur 0 -- -- 61
2021-03-03 13:00:00 14.7 13 Sudoeste 25 Sur 0 -- -- 65
2021-03-03 12:00:00 13.9 12 Sudoeste 29 Sur 0 -- -- 67
2021-03-03 11:00:00 11.8 14 Sudoeste 36 Sudoeste 0 -- -- 73
2021-03-03 10:00:00 11 19 Sudoeste 35 Sudoeste 0 -- -- 77
2021-03-03 09:00:00 9.8 10 Sudoeste 30 Sudoeste 0 -- -- 81
2021-03-03 08:00:00 9.7 16 Sudoeste 32 Sur 0 -- -- 81
2021-03-03 07:00:00 9.8 13 Sudoeste 36 Sur 0 -- -- 80
2021-03-03 06:00:00 9.8 14 Sudoeste 32 Sudoeste 0 -- -- 80
2021-03-03 05:00:00 9.8 11 Sudoeste 37 Sur 0 -- -- 80
2021-03-03 04:00:00 9.7 15 Sur 32 Sur 0 -- -- 81
2021-03-03 03:00:00 9.8 9 Sur 32 Sudoeste 0 -- -- 81
2021-03-03 02:00:00 9.9 9 Sudoeste 33 Sudoeste 0 -- -- 80
2021-03-03 01:00:00 10 21 Sudoeste 46 Sudoeste 0 -- -- 79
2021-03-03 00:00:00 10 19 Sur 44 Sudoeste 0 -- -- 78
2021-03-02 23:00:00 10.1 25 Sudoeste 43 Sur 0 -- -- 76
2021-03-02 22:00:00 10.7 20 Sudoeste 41 Sudoeste 0 -- -- 71
2021-03-02 21:00:00 11 19 Sudoeste 47 Sudoeste 0 -- -- 69
2021-03-02 20:00:00 11.1 14 Sur 47 Sudeste 0 -- -- 69
2021-03-02 19:00:00 11.5 23 Sudoeste 47 Sudoeste 0 -- -- 67
2021-03-02 18:00:00 12.1 19 Sudoeste 49 Sur 0 -- -- 64
2021-03-02 17:00:00 12.4 25 Sudoeste 50 Sudoeste 0 -- -- 63
2021-03-02 16:00:00 12.5 26 Sudoeste 43 Sudoeste 0 -- -- 63
2021-03-02 15:00:00 12.8 14 Sudoeste 41 Sudoeste 0 -- -- 65
2021-03-02 14:00:00 12.8 10 Sudoeste 43 Sudoeste 0 -- -- 67
2021-03-02 13:00:00 12.2 15 Sudoeste 38 Sudeste 0 -- -- 71
2021-03-02 12:00:00 11.3 20 Sur 49 Sur 0 -- -- 74
2021-03-02 11:00:00 10.5 18 Sudoeste 49 Sudoeste 0 -- -- 74
2021-03-02 10:00:00 10 14 Sur 42 Sudoeste 0 -- -- 76
2021-03-02 09:00:00 9.2 18 Sur 39 Sur 0 -- -- 77
2021-03-02 08:00:00 9.3 15 Sur 35 Sudeste 0 -- -- 76
2021-03-02 07:00:00 9.4 14 Sudoeste 47 Oeste 0 -- -- 75
2021-03-02 06:00:00 9.5 23 Sudoeste 45 Sur 0 -- -- 74
2021-03-02 05:00:00 9.1 17 Sudoeste 42 Sur 0 -- -- 79
2021-03-02 04:00:00 9.2 23 Sudoeste 53 Sur 0 -- -- 79
2021-03-02 03:00:00 9.5 39 Sur 66 Sur 0 -- -- 77
2021-03-02 02:00:00 9.4 34 Sur 59 Sur 0 -- -- 77
2021-03-02 01:00:00 9.5 36 Sur 59 Sur 0 -- -- 76
2021-03-02 00:00:00 9.6 27 Sur 54 Sur 0 -- -- 75
2021-03-01 23:00:00 9.6 29 Sur 50 Sur 0 -- -- 74
2021-03-01 22:00:00 9.8 22 Sur 49 Sur 0 -- -- 73
2021-03-01 21:00:00 10 11 Sudoeste 26 Sudoeste 0 -- -- 72
2021-03-01 20:00:00 9.9 6 Noroeste 38 Sudoeste 0 -- -- 75
2021-03-01 19:00:00 10.5 13 Sudoeste 39 Sudeste 0 -- -- 70
2021-03-01 18:00:00 10.8 20 Sudoeste 44 Sudoeste 0 -- -- 67
2021-03-01 17:00:00 11.3 15 Sudoeste 40 Sudeste 0 -- -- 66
2021-03-01 16:00:00 11.6 17 Sur 53 Sudoeste 0 -- -- 64
2021-03-01 15:00:00 12.1 21 Sur 53 Sur 0 -- -- 61
2021-03-01 14:00:00 11.9 21 Sur 56 Sudoeste 0 -- -- 62
2021-03-01 13:00:00 11.4 30 Sudoeste 59 Sudoeste 0 -- -- 64
2021-03-01 12:00:00 10.4 34 Sur 59 Sudoeste 0 -- -- 68
2021-03-01 11:00:00 10 33 Sur 55 Sur 0 -- -- 67
2021-03-01 10:00:00 9.7 26 Sur 58 Sudoeste 0 -- -- 68
2021-03-01 09:00:00 8.8 24 Sur 57 Sur 0 -- -- 72
2021-03-01 08:00:00 8.6 15 Sudoeste 52 Sudoeste 0 -- -- 71
2021-03-01 07:00:00 8.8 27 Sudoeste 54 Sudoeste 0 -- -- 71
2021-03-01 06:00:00 9 24 Sudoeste 54 Sudoeste 0 -- -- 73
2021-03-01 05:00:00 9.1 28 Sudoeste 52 Sur 0 -- -- 74
2021-03-01 04:00:00 8.7 21 Sudoeste 63 Sur 0 -- -- 78
2021-03-01 03:00:00 8.7 27 Sudoeste 57 Sudoeste 0 -- -- 78
2021-03-01 02:00:00 8.6 15 Sudoeste 40 Sudoeste 0 -- -- 78
2021-03-01 01:00:00 9 20 Sur 43 Sur 0 -- -- 76
2021-03-01 00:00:00 9 8 Sur 31 Sur 0 -- -- 76
2021-02-28 23:00:00 9.5 7 Sudoeste 33 Sudeste 0 -- -- 76
2021-02-28 22:00:00 9.4 17 Sudoeste 49 Sudoeste 0.2 -- -- 80
2021-02-28 21:00:00 8.9 7 Sur 33 Sudoeste 0.6 -- -- 83
2021-02-28 20:00:00 8.3 9 Sudoeste 22 Sur 2.4 -- -- 89
2021-02-28 19:00:00 8.5 2 Sudoeste 14 Noroeste 1.4 -- -- 90
2021-02-28 18:00:00 9.3 5 Sudoeste 24 Sur 0.4 -- -- 82
2021-02-28 17:00:00 9.4 8 Sudeste 26 Sur 0 -- -- 81
2021-02-28 16:00:00 9 3 Oeste 21 Sudoeste 0 -- -- 82
2021-02-28 15:00:00 7.9 5 Sur 14 Sur 1 -- -- 89
2021-02-28 14:00:00 8.8 2 Este 8 Este 0 -- -- 78
2021-02-28 13:00:00 8.5 2 Este 7 Sur 0 -- -- 73
2021-02-28 12:00:00 8.3 0 Calma 8 Este 0 -- -- 78
2021-02-28 11:00:00 7.4 3 Este 10 Este 0 -- -- 84
2021-02-28 10:00:00 5.7 0 Calma 2 Noroeste 0 -- -- 95
2021-02-28 09:00:00 4.9 0 Calma 2 Noroeste 0 -- -- 96
2021-02-28 08:00:00 4.3 0 Calma 4 Noroeste 0 -- -- 98
2021-02-28 07:00:00 3.9 0 Calma 4 Noroeste 0 -- -- 99
2021-02-28 06:00:00 3.4 0 Calma 2 Este 0 -- -- 98
2021-02-28 05:00:00 3.6 0 Calma 5 Oeste 0 -- -- 97
2021-02-28 04:00:00 4.8 0 Calma 6 Noroeste 0 -- -- 96
2021-02-28 03:00:00 5.2 0 Calma 4 Norte 0 -- -- 94
2021-02-28 02:00:00 5.5 3 Noroeste 5 Nordeste 0 -- -- 95
2021-02-28 01:00:00 5.6 2 Este 6 Oeste 0 -- -- 94
2021-02-28 00:00:00 5.6 3 Este 6 Este 0 -- -- 94
2021-02-27 23:00:00 5.6 0 Calma 6 Nordeste 0 -- -- 93
2021-02-27 22:00:00 5.5 0 Calma 10 Noroeste 0 -- -- 89
2021-02-27 21:00:00 5.4 2 Sudoeste 5 Noroeste 0 -- -- 89
2021-02-27 20:00:00 5.4 3 Nordeste 12 Norte 0 -- -- 87
2021-02-27 19:00:00 5.8 3 Noroeste 13 Noroeste 0 -- -- 81
2021-02-27 18:00:00 6.8 4 Oeste 14 Noroeste 0 -- -- 79
2021-02-27 17:00:00 7.5 6 Oeste 20 Este 0 -- -- 79
2021-02-27 16:00:00 9 6 Sudoeste 29 Noroeste 0 -- -- 74
2021-02-27 15:00:00 9.8 8 Noroeste 23 Oeste 0 -- -- 72
2021-02-27 14:00:00 10.1 5 Nordeste 28 Noroeste 0 -- -- 75
2021-02-27 13:00:00 10.1 5 Noroeste 22 Oeste 0 -- -- 71
2021-02-27 12:00:00 10.1 5 Norte 20 Norte 0 -- -- 74
2021-02-27 11:00:00 8.9 4 Noroeste 15 Este 0 -- -- 74
2021-02-27 10:00:00 8.5 6 Nordeste 17 Oeste 0 -- -- 81
2021-02-27 09:00:00 8.3 4 Este 10 Este 0 -- -- 86
2021-02-27 08:00:00 8.2 2 Nordeste 14 Nordeste 0 -- -- 88
2021-02-27 07:00:00 8.2 3 Este 9 Nordeste 0 -- -- 91
2021-02-27 06:00:00 8.3 3 Nordeste 8 Este 0 -- -- 89
2021-02-27 05:00:00 8.3 3 Nordeste 12 Noroeste 0 -- -- 91
2021-02-27 04:00:00 8.3 2 Este 7 Norte 0 -- -- 92
2021-02-27 03:00:00 8.2 2 Norte 5 Norte 0 -- -- 94
2021-02-27 02:00:00 8.1 0 Calma 7 Norte 0 -- -- 95
2021-02-27 01:00:00 8.1 0 Calma 8 Noroeste 0 -- -- 95
2021-02-27 00:00:00 8.2 2 Noroeste 9 Norte 0 -- -- 95
2021-02-26 23:00:00 8.2 3 Norte 9 Norte 0 -- -- 95
2021-02-26 22:00:00 8.4 3 Norte 11 Norte 0 -- -- 95
2021-02-26 21:00:00 8.5 0 Calma 6 Norte 0 -- -- 95
2021-02-26 20:00:00 8.6 0 Calma 10 Este 0 -- -- 95
2021-02-26 19:00:00 8.8 4 Nordeste 13 Nordeste 0 -- -- 94
2021-02-26 18:00:00 9.3 2 Nordeste 12 Norte 0 -- -- 92
2021-02-26 17:00:00 9.6 5 Norte 14 Noroeste 0 -- -- 90
2021-02-26 16:00:00 11.1 7 Noroeste 17 Noroeste 0 -- -- 84
2021-02-26 15:00:00 11.9 5 Nordeste 11 Este 0 -- -- 80
2021-02-26 14:00:00 11 3 Norte 15 Norte 0 -- -- 84
2021-02-26 13:00:00 10.6 3 Nordeste 12 Noroeste 0 -- -- 87
2021-02-26 12:00:00 10.5 5 Norte 13 Norte 0 -- -- 87
2021-02-26 11:00:00 10.2 4 Este 8 Nordeste 0 -- -- 89
2021-02-26 10:00:00 9.4 2 Norte 8 Noroeste 0 -- -- 94
2021-02-26 09:00:00 9 0 Calma 8 Norte 0 -- -- 97
2021-02-26 08:00:00 8.8 0 Calma 6 Norte 0 -- -- 97
2021-02-26 07:00:00 8.9 0 Calma 5 Este 0 -- -- 98
2021-02-26 06:00:00 8.9 0 Calma 3 Noroeste 0 -- -- 97
2021-02-26 05:00:00 8.9 0 Calma 4 Este 0 -- -- 97
2021-02-26 04:00:00 9 0 Calma 5 Este 0 -- -- 95
2021-02-26 03:00:00 9.1 0 Calma 7 Nordeste 0 -- -- 94
2021-02-26 02:00:00 9.3 0 Calma 0 Calma 0 -- -- 94
2021-02-26 01:00:00 9.4 0 Calma 0 Calma 0 -- -- 93
2021-02-26 00:00:00 9.5 0 Calma 0 Calma 0 -- -- 92
2021-02-25 23:00:00 9.5 0 Calma 5 Este 0 -- -- 92
2021-02-25 22:00:00 9.5 2 Este 9 Este 0 -- -- 93
2021-02-25 21:00:00 9.7 4 Nordeste 9 Nordeste 0 -- -- 93
2021-02-25 20:00:00 10 3 Nordeste 9 Norte 0 -- -- 92
2021-02-25 19:00:00 10.4 2 Nordeste 11 Norte 0 -- -- 90
2021-02-25 18:00:00 11.7 5 Nordeste 12 Nordeste 0 -- -- 83
2021-02-25 17:00:00 13.6 4 Sudeste 19 Sudoeste 0 -- -- 62
2021-02-25 16:00:00 13.9 2 Sudoeste 18 Sudoeste 0 -- -- 59
2021-02-25 15:00:00 13.4 6 Sur 19 Sudoeste 0 -- -- 68
2021-02-25 14:00:00 12.2 6 Sudoeste 34 Sudoeste 0 -- -- 65
2021-02-25 13:00:00 11.4 21 Sudoeste 40 Sudoeste 0 -- -- 68
2021-02-25 12:00:00 10.6 23 Sur 49 Sudoeste 0 -- -- 69
2021-02-25 11:00:00 10 23 Sur 51 Sur 0 -- -- 70
2021-02-25 10:00:00 9.5 24 Sur 43 Sur 0 -- -- 70
2021-02-25 09:00:00 10 10 Sur 35 Sur 0 -- -- 63
2021-02-25 08:00:00 9.5 6 Oeste 40 Sudoeste 0 -- -- 68
2021-02-25 07:00:00 9.5 15 Sudoeste 42 Sur 0 -- -- 74
2021-02-25 06:00:00 10.6 23 Sudoeste 52 Sudoeste 0 -- -- 67
2021-02-25 05:00:00 11 28 Sudoeste 51 Sur 0 -- -- 69
2021-02-25 04:00:00 11.4 28 Sur 61 Sur 0 -- -- 64
2021-02-25 03:00:00 12.1 40 Sur 60 Sur 0 -- -- 64
2021-02-25 02:00:00 12.6 37 Sur 57 Sur 0 -- -- 64
2021-02-25 01:00:00 12.6 21 Sur 54 Sur 0 -- -- 67
2021-02-25 00:00:00 12.9 19 Sudoeste 48 Sur 0 -- -- 62
2021-02-24 23:00:00 12.4 19 Sur 38 Sur 0 -- -- 69
2021-02-24 22:00:00 13.1 15 Sudoeste 42 Sur 0 -- -- 65
2021-02-24 21:00:00 13.8 28 Sur 47 Sur 0 -- -- 60
2021-02-24 20:00:00 14 19 Sudoeste 34 Sudoeste 0 -- -- 62
2021-02-24 19:00:00 14.7 15 Sudoeste 36 Sur 0 -- -- 58
2021-02-24 18:00:00 15.4 23 Sudoeste 47 Sudoeste 0 -- -- 56
2021-02-24 17:00:00 16.1 25 Sudoeste 51 Sur 0 -- -- 55
2021-02-24 16:00:00 15.8 30 Sudoeste 58 Sur 0 -- -- 56
2021-02-24 15:00:00 15.7 26 Sur 59 Sudoeste 0 -- -- 59
2021-02-24 14:00:00 14.5 34 Sur 67 Sudoeste 0 -- -- 66
2021-02-24 13:00:00 13.8 28 Sur 55 Sudeste 0 -- -- 67
2021-02-24 12:00:00 13.4 22 Sur 46 Sudeste 0 -- -- 70
2021-02-24 11:00:00 12.6 10 Este 46 Sudoeste 0 -- -- 71
2021-02-24 10:00:00 11.7 12 Sudoeste 35 Sudeste 0 -- -- 71
2021-02-24 09:00:00 10.8 16 Sudoeste 43 Sur 0 -- -- 76
2021-02-24 08:00:00 10.9 26 Sudoeste 54 Sudoeste 0 -- -- 77
2021-02-24 07:00:00 11.3 22 Sur 60 Sudeste 0 -- -- 75
2021-02-24 06:00:00 11.7 30 Sudoeste 53 Sur 0 -- -- 70
2021-02-24 05:00:00 11.5 26 Sur 58 Sudoeste 0 -- -- 72
2021-02-24 04:00:00 11.3 24 Sudoeste 51 Sudoeste 0 -- -- 74
2021-02-24 03:00:00 11.6 27 Sur 57 Sudoeste 0 -- -- 74
2021-02-24 02:00:00 11.5 26 Sudoeste 52 Sudoeste 0 -- -- 75
2021-02-24 01:00:00 11.2 28 Sudoeste 47 Sur 0 -- -- 72
2021-02-24 00:00:00 11.2 26 Sur 53 Sur 0 -- -- 71
2021-02-23 23:00:00 11.4 14 Sudoeste 32 Sudeste 0 -- -- 70
2021-02-23 22:00:00 11.5 15 Sudoeste 37 Sudoeste 0 -- -- 68
2021-02-23 21:00:00 11.6 10 Sur 32 Sudoeste 0 -- -- 66
2021-02-23 20:00:00 11.6 8 Sur 37 Sudeste 0 -- -- 67
2021-02-23 19:00:00 12.2 10 Sudoeste 36 Sudeste 0 -- -- 65
2021-02-23 18:00:00 13.1 15 Sudoeste 48 Sudoeste 0 -- -- 60
2021-02-23 17:00:00 14 23 Sudoeste 53 Oeste 0 -- -- 52
2021-02-23 16:00:00 14.5 24 Sur 52 Sudoeste 0 -- -- 54
2021-02-23 15:00:00 14.2 23 Sudoeste 49 Sur 0 -- -- 56
2021-02-23 14:00:00 13.3 23 Sur 77 Sudoeste 0 -- -- 59
2021-02-23 13:00:00 11.9 37 Sudoeste 64 Sur 0 -- -- 65
2021-02-23 12:00:00 11.1 27 Sudoeste 51 Sur 0 -- -- 69
2021-02-23 11:00:00 10.4 21 Sudoeste 40 Sur 0 -- -- 73
2021-02-23 10:00:00 9.7 17 Sudoeste 39 Sudoeste 0 -- -- 74
2021-02-23 09:00:00 8.3 28 Sudoeste 60 Sur 0 -- -- 79
2021-02-23 08:00:00 8 30 Sur 53 Sudoeste 0 -- -- 79
2021-02-23 07:00:00 8.1 21 Sudoeste 48 Sudoeste 0 -- -- 80
2021-02-23 06:00:00 8 10 Sur 38 Sudoeste 0 -- -- 82
2021-02-23 05:00:00 7.9 17 Sur 42 Sudoeste 0 -- -- 85
2021-02-23 04:00:00 8 7 Sudoeste 39 Sudoeste 0 -- -- 86
2021-02-23 03:00:00 7.1 9 Sur 27 Sudoeste 0 -- -- 91
2021-02-23 02:00:00 7 6 Sudoeste 29 Sudoeste 0 -- -- 89
2021-02-23 01:00:00 6.4 6 Oeste 16 Oeste 0 -- -- 92
2021-02-23 00:00:00 5.4 9 Oeste 14 Noroeste 0 -- -- 100
2021-02-22 23:00:00 5.6 3 Oeste 5 Oeste 0 -- -- 100
2021-02-22 22:00:00 6.3 3 Oeste 4 Noroeste 0.4 -- -- 100
2021-02-22 21:00:00 6.4 0 Calma 4 Este 0 -- -- 100
2021-02-22 20:00:00 6.4 0 Calma 3 Sudeste 0.2 -- -- 100
2021-02-22 19:00:00 6.5 0 Calma 6 Este 0.4 -- -- 100
2021-02-22 18:00:00 6.8 0 Calma 8 Este 0.2 -- -- 100
2021-02-22 17:00:00 7 0 Calma 6 Nordeste 0.6 -- -- 100
2021-02-22 16:00:00 6.9 3 Este 7 Este 0.4 -- -- 99
2021-02-22 15:00:00 6.9 0 Calma 10 Nordeste 0.2 -- -- 100
2021-02-22 14:00:00 6.9 3 Sudeste 10 Oeste 0.2 -- -- 97
2021-02-22 13:00:00 6.5 4 Este 10 Nordeste 0.4 -- -- 99
2021-02-22 12:00:00 6 3 Este 17 Noroeste 1 -- -- 97
2021-02-22 11:00:00 5.5 3 Sudoeste 13 Oeste 2.6 -- -- 97
2021-02-22 10:00:00 4.7 0 Calma 7 Sur 5.8 -- -- 98
2021-02-22 09:00:00 4.6 5 Sudoeste 9 Sudoeste 1.4 -- -- 97
2021-02-22 08:00:00 4.3 3 Sudoeste 14 Sudoeste 4.2 -- -- 95
2021-02-22 07:00:00 4.6 3 Sudoeste 12 Sudoeste 3.6 -- -- 97
2021-02-22 06:00:00 4.9 2 Sudoeste 14 Noroeste 3 -- -- 95
2021-02-22 05:00:00 5.1 5 Oeste 11 Oeste 3.8 -- -- 95
2021-02-22 04:00:00 5.5 4 Oeste 15 Oeste 2.6 -- -- 94
2021-02-22 03:00:00 6 0 Calma 5 Este 4.2 -- -- 100
2021-02-22 02:00:00 6.2 0 Calma 15 Nordeste 6.6 -- -- 99
2021-02-22 01:00:00 6.7 5 Este 21 Este 4.6 -- -- 97
2021-02-22 00:00:00 7.8 6 Nordeste 19 Este 2.8 -- -- 96
2021-02-21 23:00:00 9.8 9 Nordeste 28 Nordeste 0 -- -- 85
2021-02-21 22:00:00 13.3 8 Sudoeste 23 Sur 0 -- -- 58
2021-02-21 21:00:00 12.9 9 Sudeste 30 Sudoeste 0 -- -- 60
2021-02-21 20:00:00 12.4 12 Sur 39 Sudeste 0 -- -- 64
2021-02-21 19:00:00 12.2 12 Sur 37 Sur 0 -- -- 67
2021-02-21 18:00:00 12.3 9 Sudoeste 48 Sudoeste 0 -- -- 64
2021-02-21 17:00:00 12.5 23 Sudoeste 51 Sudoeste 0 -- -- 63
2021-02-21 16:00:00 12.1 23 Sudoeste 59 Oeste 0 -- -- 64
2021-02-21 15:00:00 13 31 Sudoeste 61 Sudoeste 0 -- -- 60
2021-02-21 14:00:00 13.4 25 Sudoeste 51 Sudoeste 0 -- -- 48
2021-02-21 13:00:00 13.9 20 Sudoeste 46 Sudoeste 0 -- -- 42
2021-02-21 12:00:00 14 9 Sur 44 Sudoeste 0 -- -- 44
2021-02-21 11:00:00 12.9 12 Sur 30 Sur 0 -- -- 45
2021-02-21 10:00:00 11.3 9 Sudoeste 37 Sudeste 0 -- -- 49
2021-02-21 09:00:00 10.5 11 Sur 36 Sur 0 -- -- 50
2021-02-21 08:00:00 10.3 14 Sur 35 Sur 0 -- -- 51
2021-02-21 07:00:00 10.3 10 Sudeste 36 Sudoeste 0 -- -- 53
2021-02-21 06:00:00 10.9 17 Sudeste 44 Sudeste 0 -- -- 49
2021-02-21 05:00:00 11.2 14 Sur 50 Sudoeste 0 -- -- 48
2021-02-21 04:00:00 11.8 16 Sur 39 Sudoeste 0 -- -- 45
2021-02-21 03:00:00 12.5 16 Sur 53 Sur 0 -- -- 44
2021-02-21 02:00:00 12.8 22 Sur 79 Sudoeste 0 -- -- 44
2021-02-21 01:00:00 13.6 24 Sudoeste 60 Sudoeste 0 -- -- 43
2021-02-21 00:00:00 14.2 17 Sur 50 Noroeste 0 -- -- 43
2021-02-20 23:00:00 14.7 13 Sudoeste 33 Sudoeste 0 -- -- 42
2021-02-20 22:00:00 15 7 Oeste 30 Sur 0 -- -- 41
2021-02-20 21:00:00 15.5 8 Sudeste 44 Sudoeste 0 -- -- 41
2021-02-20 20:00:00 16.5 18 Sudoeste 50 Sudoeste 0 -- -- 37
2021-02-20 19:00:00 16.9 21 Sudoeste 57 Sudoeste 0 -- -- 36
2021-02-20 18:00:00 18.1 22 Sudoeste 61 Sudoeste 0 -- -- 30
2021-02-20 17:00:00 19 21 Sudoeste 58 Sur 0 -- -- 28
2021-02-20 16:00:00 19.2 22 Sur 61 Sudoeste 0 -- -- 27
2021-02-20 15:00:00 19.4 22 Sudoeste 60 Sudoeste 0 -- -- 30
2021-02-20 14:00:00 18.8 28 Sur 71 Sudoeste 0 -- -- 29
2021-02-20 13:00:00 18.1 28 Sur 65 Sudoeste 0 -- -- 31
2021-02-20 12:00:00 16.8 17 Sur 64 Sudeste 0 -- -- 36
2021-02-20 11:00:00 15.4 17 Sur 57 Sur 0 -- -- 39
2021-02-20 10:00:00 14.2 21 Sur 54 Sudeste 0 -- -- 41
2021-02-20 09:00:00 13.6 22 Sur 54 Sudeste 0 -- -- 42
2021-02-20 08:00:00 14.3 22 Sur 50 Sur 0 -- -- 38
2021-02-20 07:00:00 13.4 17 Sur 49 Sur 0 -- -- 41
2021-02-20 06:00:00 13.8 21 Sur 61 Sur 0 -- -- 40
2021-02-20 05:00:00 14.6 24 Sur 57 Sudoeste 0 -- -- 36
2021-02-20 04:00:00 14.7 33 Sudoeste 57 Sudoeste 0 -- -- 37
2021-02-20 03:00:00 14.6 28 Sudoeste 51 Sudoeste 0 -- -- 38
2021-02-20 02:00:00 14.2 22 Sur 53 Sur 0 -- -- 41
2021-02-20 01:00:00 14.4 24 Sudoeste 54 Sudoeste 0 -- -- 41
2021-02-20 00:00:00 14.7 26 Sudoeste 60 Sudoeste 0 -- -- 40
2021-02-19 23:00:00 14.7 27 Sudoeste 53 Sudoeste 0 -- -- 41
2021-02-19 22:00:00 14.7 22 Sudoeste 51 Sur 0 -- -- 44
2021-02-19 21:00:00 14.9 24 Sur 47 Sur 0 -- -- 45
2021-02-19 20:00:00 15.3 16 Sur 44 Sudoeste 0 -- -- 44
2021-02-19 19:00:00 15.7 13 Sur 28 Sur 0 -- -- 43
2021-02-19 18:00:00 16.6 13 Sur 38 Sur 0 -- -- 40
2021-02-19 17:00:00 16.8 14 Sur 36 Sudoeste 0 -- -- 41
2021-02-19 16:00:00 17.4 13 Sur 45 Sudoeste 0 -- -- 42
2021-02-19 15:00:00 16.8 21 Sudoeste 52 Sudoeste 0 -- -- 42
2021-02-19 14:00:00 15.5 27 Sur 47 Sudoeste 0 -- -- 46
2021-02-19 13:00:00 15.2 24 Sur 53 Sur 0 -- -- 46
2021-02-19 12:00:00 14.3 21 Sur 43 Sudoeste 0 -- -- 46
2021-02-19 11:00:00 13.2 14 Sur 35 Sur 0 -- -- 48
2021-02-19 10:00:00 11.6 17 Sur 37 Sur 0 -- -- 54
2021-02-19 09:00:00 10.5 15 Sur 39 Sur 0 -- -- 57
2021-02-19 08:00:00 10.5 17 Sudoeste 37 Sur 0 -- -- 57
2021-02-19 07:00:00 11 13 Sur 31 Sur 0 -- -- 56
2021-02-19 06:00:00 11.2 22 Sudoeste 42 Sudoeste 0 -- -- 56
2021-02-19 05:00:00 11.3 18 Sudoeste 34 Sudoeste 0 -- -- 57
2021-02-19 04:00:00 11.9 9 Sur 25 Sur 0 -- -- 61
2021-02-19 03:00:00 12 17 Sur 32 Sudoeste 0 -- -- 62
2021-02-19 02:00:00 11.1 7 Sudoeste 15 Sur 0 -- -- 71
2021-02-19 01:00:00 10.3 5 Sudoeste 14 Sudoeste 0 -- -- 79
2021-02-19 00:00:00 8.3 0 Calma 4 Noroeste 0 -- -- 98
2021-02-18 23:00:00 8.2 0 Calma 2 Noroeste 0 -- -- 98
2021-02-18 22:00:00 8.3 4 Noroeste 6 Oeste 0 -- -- 99
2021-02-18 21:00:00 8.3 0 Calma 6 Nordeste 0 -- -- 97
2021-02-18 20:00:00 8.8 0 Calma 6 Nordeste 0 -- -- 95
2021-02-18 19:00:00 9.1 4 Nordeste 12 Este 0 -- -- 94
2021-02-18 18:00:00 10.1 4 Nordeste 12 Nordeste 0 -- -- 90
2021-02-18 17:00:00 11.5 4 Nordeste 14 Nordeste 0 -- -- 81
2021-02-18 16:00:00 14.4 5 Noroeste 42 Noroeste 0 -- -- 58
2021-02-18 15:00:00 16.3 18 Oeste 44 Noroeste 0 -- -- 32
2021-02-18 14:00:00 17 17 Sudoeste 36 Sur 0 -- -- 37
2021-02-18 13:00:00 16.3 13 Sudoeste 40 Sudoeste 0 -- -- 38
2021-02-18 12:00:00 14.4 12 Sur 32 Sur 0 -- -- 49
2021-02-18 11:00:00 12.2 12 Sur 29 Sur 0 -- -- 57
2021-02-18 10:00:00 11.6 7 Sudeste 36 Sur 0 -- -- 60
2021-02-18 09:00:00 11.5 13 Sudoeste 32 Sur 0 -- -- 61
2021-02-18 08:00:00 11.5 9 Sudeste 30 Sudeste 0 -- -- 62
2021-02-18 07:00:00 11.9 10 Sur 41 Sur 0 -- -- 61
2021-02-18 06:00:00 12.4 16 Sur 35 Sudoeste 0 -- -- 60
2021-02-18 05:00:00 12.5 9 Sur 32 Sur 0 -- -- 61
2021-02-18 04:00:00 12.3 10 Sur 33 Sudoeste 0 -- -- 63
2021-02-18 03:00:00 12.4 13 Sur 47 Sur 0 -- -- 62
2021-02-18 02:00:00 13 21 Sudoeste 49 Sudoeste 0 -- -- 61
2021-02-18 01:00:00 13 17 Sur 55 Sur 0 -- -- 64
2021-02-18 00:00:00 12.8 24 Sur 57 Sudoeste 0 -- -- 69
2021-02-17 23:00:00 12.8 23 Sudoeste 45 Sudoeste 0 -- -- 68
2021-02-17 22:00:00 13 15 Sudoeste 31 Sudoeste 0 -- -- 66
2021-02-17 21:00:00 13.3 19 Sudoeste 41 Sur 0 -- -- 65
2021-02-17 20:00:00 13.3 13 Sur 37 Sudoeste 0 -- -- 67
2021-02-17 19:00:00 13.4 22 Sudoeste 36 Sudeste 0 -- -- 66
2021-02-17 18:00:00 13.3 19 Sur 35 Sur 0 -- -- 68
2021-02-17 17:00:00 13.6 12 Sudoeste 37 Sur 0 -- -- 68
2021-02-17 16:00:00 13.8 15 Sudoeste 32 Sudoeste 0 -- -- 65
2021-02-17 15:00:00 15.1 18 Sudoeste 35 Sudoeste 0 -- -- 57
2021-02-17 14:00:00 15.7 22 Sudoeste 40 Sur 0 -- -- 54
2021-02-17 13:00:00 14 10 Sur 26 Sudoeste 0 -- -- 67
2021-02-17 12:00:00 12 10 Sudoeste 26 Sudoeste 0 -- -- 74
2021-02-17 11:00:00 11 13 Sudoeste 30 Sudoeste 0 -- -- 77
2021-02-17 10:00:00 10.7 14 Sudoeste 28 Sur 0 -- -- 78
2021-02-17 09:00:00 9.9 10 Sudoeste 19 Sudoeste 0 -- -- 80
2021-02-17 08:00:00 9.7 3 Sudoeste 17 Sudoeste 0 -- -- 79
2021-02-17 07:00:00 10.1 4 Sudoeste 15 Sudoeste 0 -- -- 76
2021-02-17 06:00:00 9.1 5 Oeste 10 Sudoeste 0 -- -- 78
2021-02-17 05:00:00 8.4 3 Oeste 8 Noroeste 0 -- -- 81
2021-02-17 04:00:00 7.9 0 Calma 4 Sur 0 -- -- 84
2021-02-17 03:00:00 7.7 0 Calma 4 Norte 0 -- -- 89
2021-02-17 02:00:00 7.5 0 Calma 3 Sudoeste 0 -- -- 91
2021-02-17 01:00:00 7.1 0 Calma 3 Sudoeste 0 -- -- 95
2021-02-17 00:00:00 7.2 0 Calma 3 Sur 0 -- -- 92
2021-02-16 23:00:00 7.6 0 Calma 5 Noroeste 0 -- -- 92
2021-02-16 22:00:00 8.2 0 Calma 4 Norte 0 -- -- 90
2021-02-16 21:00:00 8.8 0 Calma 2 Norte 0 -- -- 88
2021-02-16 20:00:00 9.3 0 Calma 6 Nordeste 0 -- -- 86
2021-02-16 19:00:00 9.7 0 Calma 8 Nordeste 0 -- -- 85
2021-02-16 18:00:00 10 2 Nordeste 5 Nordeste 0 -- -- 85
2021-02-16 17:00:00 10.9 4 Nordeste 21 Nordeste 0 -- -- 80
2021-02-16 16:00:00 14 2 Oeste 19 Sudoeste 0 -- -- 56
2021-02-16 15:00:00 14.6 8 Sudoeste 23 Sur 0 -- -- 54
2021-02-16 14:00:00 14 12 Sur 27 Sudoeste 0 -- -- 61
2021-02-16 13:00:00 11.6 15 Sudoeste 26 Sudoeste 0 -- -- 64
2021-02-16 12:00:00 10.7 12 Oeste 49 Sur 0 -- -- 66
2021-02-16 11:00:00 9.8 23 Sudoeste 63 Sur 0 -- -- 72
2021-02-16 10:00:00 9.6 36 Sudoeste 75 Sudoeste 0 -- -- 72
2021-02-16 09:00:00 9.3 42 Sudoeste 68 Sudoeste 0 -- -- 73
2021-02-16 08:00:00 8.7 21 Sudoeste 69 Sur 0 -- -- 77
2021-02-16 07:00:00 9.1 22 Sur 55 Sur 0 -- -- 74
2021-02-16 06:00:00 8.9 19 Sur 45 Sur 0 -- -- 76
2021-02-16 05:00:00 8.8 16 Sudoeste 51 Sur 0 -- -- 78
2021-02-16 04:00:00 9.2 9 Sur 61 Sur 0 -- -- 78
2021-02-16 03:00:00 9.5 27 Sur 62 Sur 0 -- -- 77
2021-02-16 02:00:00 9.5 29 Sur 71 Sur 0 -- -- 78
2021-02-16 01:00:00 9 35 Sur 61 Sur 0 -- -- 81
2021-02-16 00:00:00 9 42 Sur 72 Sudoeste 0 -- -- 81
2021-02-15 23:00:00 9.2 38 Sur 68 Sudoeste 0 -- -- 80
2021-02-15 22:00:00 9.3 30 Sur 67 Sur 0 -- -- 78
2021-02-15 21:00:00 9.8 28 Sur 56 Sur 0 -- -- 73
2021-02-15 20:00:00 10.1 33 Sur 63 Sur 0 -- -- 74
2021-02-15 19:00:00 10.1 19 Sur 72 Sur 0 -- -- 76
2021-02-15 18:00:00 10.4 40 Sudoeste 67 Sur 0 -- -- 74
2021-02-15 17:00:00 11.3 28 Sur 61 Sudoeste 0 -- -- 69
2021-02-15 16:00:00 11 31 Sudoeste 51 Sudoeste 0 -- -- 71
2021-02-15 15:00:00 11.3 18 Sur 53 Sur 0 -- -- 70
2021-02-15 14:00:00 10.8 29 Sudoeste 51 Sur 0 -- -- 70
2021-02-15 13:00:00 10 21 Sur 52 Sur 0 -- -- 74
2021-02-15 12:00:00 9.5 21 Sur 65 Sudoeste 0 -- -- 76
2021-02-15 11:00:00 8.4 28 Sur 57 Sudoeste 0 -- -- 78
2021-02-15 10:00:00 8 25 Sur 49 Sudoeste 0 -- -- 79
2021-02-15 09:00:00 7.6 23 Sur 53 Sur 0 -- -- 80
2021-02-15 08:00:00 7.6 27 Sudoeste 58 Sur 0 -- -- 80
2021-02-15 07:00:00 7.4 26 Sur 54 Sudoeste 0 -- -- 80
2021-02-15 06:00:00 7.3 29 Sur 53 Sudoeste 0 -- -- 80
2021-02-15 05:00:00 7.6 30 Sur 53 Sudoeste 0 -- -- 79
2021-02-15 04:00:00 7.8 31 Sur 60 Sur 0 -- -- 79
2021-02-15 03:00:00 7.9 36 Sur 60 Sur 0 -- -- 79
2021-02-15 02:00:00 7.8 25 Sur 58 Sur 0 -- -- 81
2021-02-15 01:00:00 8.1 23 Sur 53 Sur 0 -- -- 81
2021-02-15 00:00:00 8.8 27 Sur 61 Sudoeste 0 -- -- 78
2021-02-14 23:00:00 9.5 33 Sur 66 Sur 0 -- -- 73
2021-02-14 22:00:00 9.8 21 Sur 52 Sudoeste 0 -- -- 73
2021-02-14 21:00:00 10.1 18 Sur 48 Sur 0 -- -- 72
2021-02-14 20:00:00 10.3 16 Sur 50 Sur 0 -- -- 72
2021-02-14 19:00:00 10.6 12 Sudeste 39 Sur 0 -- -- 71
2021-02-14 18:00:00 11.3 12 Sur 37 Sur 0 -- -- 68
2021-02-14 17:00:00 12.4 17 Sur 50 Sudeste 0 -- -- 65
2021-02-14 16:00:00 13.3 24 Sur 63 Sur 0 -- -- 63
2021-02-14 15:00:00 13.4 28 Sur 55 Sur 0 -- -- 61
2021-02-14 14:00:00 12.2 20 Sudoeste 57 Sur 0 -- -- 67
2021-02-14 13:00:00 11.4 31 Sudoeste 64 Sudoeste 0.2 -- -- 68
2021-02-14 12:00:00 10.3 30 Sur 48 Sudoeste 0 -- -- 72
2021-02-14 11:00:00 9.7 26 Sur 50 Sudoeste 0 -- -- 76
2021-02-14 10:00:00 8.8 21 Sudoeste 39 Sudoeste 0 -- -- 79
2021-02-14 09:00:00 7.3 18 Sudoeste 35 Sudoeste 0 -- -- 79
2021-02-14 08:00:00 7.7 9 Sudoeste 24 Sur 0 -- -- 80
2021-02-14 07:00:00 4.7 0 Calma 5 Noroeste 0 -- -- 95
2021-02-14 06:00:00 4 0 Calma 2 Noroeste 0 -- -- 95
2021-02-14 05:00:00 3.9 0 Calma 2 Noroeste 0 -- -- 96
2021-02-14 04:00:00 3.9 0 Calma 3 Noroeste 0 -- -- 97
2021-02-14 03:00:00 3.5 0 Calma 2 Noroeste 0 -- -- 99
2021-02-14 02:00:00 3.8 0 Calma 2 Noroeste 0 -- -- 99
2021-02-14 01:00:00 3.8 0 Calma 2 Noroeste 0 -- -- 100
2021-02-14 00:00:00 4.1 0 Calma 0 Calma 0 -- -- 99
2021-02-13 23:00:00 4.6 0 Calma 0 Calma 0 -- -- 98
2021-02-13 22:00:00 5.1 0 Calma 2 Noroeste 0 -- -- 97
2021-02-13 21:00:00 5.7 0 Calma 2 Noroeste 0 -- -- 95
2021-02-13 20:00:00 6.7 0 Calma 3 Noroeste 0 -- -- 90
2021-02-13 19:00:00 8.1 0 Calma 4 Noroeste 0 -- -- 83
2021-02-13 18:00:00 10.1 2 Oeste 6 Sudoeste 0 -- -- 73
2021-02-13 17:00:00 12.2 4 Oeste 12 Oeste 0 -- -- 66
2021-02-13 16:00:00 11.6 3 Este 8 Oeste 0 -- -- 69
2021-02-13 15:00:00 11.6 4 Noroeste 12 Nordeste 0 -- -- 64
2021-02-13 14:00:00 12.5 4 Norte 13 Noroeste 0 -- -- 63
2021-02-13 13:00:00 12.1 4 Nordeste 14 Noroeste 0 -- -- 69
2021-02-13 08:00:00 -- -- -- -- -- -- -- -- --
2021-02-13 07:00:00 6.2 2 Oeste 4 Oeste 0 -- -- 99
2021-02-13 06:00:00 6.7 0 Calma 2 Oeste 0 -- -- 98
2021-02-13 05:00:00 7 0 Calma 4 Noroeste 0 -- -- 98
2021-02-13 04:00:00 6.8 0 Calma 4 Sudoeste 0 -- -- 98
2021-02-13 03:00:00 7.5 0 Calma 9 Noroeste 0 -- -- 95
2021-02-13 02:00:00 7.8 0 Calma 10 Norte 0 -- -- 93
2021-02-13 01:00:00 8.4 4 Noroeste 15 Noroeste 0 -- -- 91
2021-02-13 00:00:00 8.4 5 Sudoeste 13 Sudoeste 0 -- -- 94
2021-02-12 23:00:00 8.7 5 Sudoeste 26 Oeste 0 -- -- 91
2021-02-12 22:00:00 8.7 5 Sur 24 Noroeste 0 -- -- 92
2021-02-12 21:00:00 9 9 Noroeste 26 Noroeste 0 -- -- 92
2021-02-12 20:00:00 9.2 5 Noroeste 25 Noroeste 1 -- -- 95
2021-02-12 19:00:00 9.4 6 Oeste 29 Noroeste 1.4 -- -- 94
2021-02-12 18:00:00 9.4 10 Sudoeste 38 Oeste 3 -- -- 93
2021-02-12 17:00:00 9.2 8 Sur 20 Noroeste 6.6 -- -- 99
2021-02-12 16:00:00 9.2 8 Sur 27 Sur 2.6 -- -- 96
2021-02-12 15:00:00 9.7 8 Noroeste 20 Noroeste 4.4 -- -- 95
2021-02-12 14:00:00 9.6 5 Este 32 Noroeste 0.6 -- -- 94
2021-02-12 13:00:00 9.6 6 Sudeste 34 Noroeste 1.6 -- -- 95
2021-02-12 12:00:00 10 9 Noroeste 23 Noroeste 5.2 -- -- 95
2021-02-12 11:00:00 10.1 0 Calma 9 Norte 1.8 -- -- 98
2021-02-12 10:00:00 9.9 3 Norte 10 Norte 0.4 -- -- 97
2021-02-12 09:00:00 10.1 3 Norte 12 Noroeste 2.4 -- -- 96
2021-02-12 08:00:00 11 2 Nordeste 25 Oeste 0 -- -- 88
2021-02-12 07:00:00 12.1 7 Sudoeste 26 Sudoeste 0 -- -- 74
2021-02-12 06:00:00 11.6 13 Sudoeste 40 Sudoeste 0.2 -- -- 83
2021-02-12 05:00:00 11.9 23 Sudoeste 50 Sudoeste 0 -- -- 78
2021-02-12 04:00:00 12.2 24 Sudoeste 42 Sudoeste 0 -- -- 76
2021-02-12 03:00:00 12 23 Sudoeste 41 Sudoeste 0 -- -- 79
2021-02-12 02:00:00 11.8 18 Sudoeste 39 Sur 0 -- -- 79
2021-02-12 01:00:00 12.4 22 Sudoeste 34 Sudoeste 0 -- -- 75
2021-02-12 00:00:00 11.9 6 Sudoeste 22 Sur 0 -- -- 76
2021-02-11 23:00:00 12 10 Oeste 33 Sudoeste 0 -- -- 77
2021-02-11 22:00:00 12.5 11 Sudoeste 30 Sudoeste 0 -- -- 75
2021-02-11 21:00:00 12.8 14 Sudoeste 24 Sudoeste 0 -- -- 73
2021-02-11 20:00:00 13.2 9 Oeste 20 Sudoeste 0 -- -- 70
2021-02-11 19:00:00 13.3 5 Oeste 13 Sudoeste 0 -- -- 69
2021-02-11 18:00:00 14.7 7 Sudoeste 17 Sur 0 -- -- 66
2021-02-11 17:00:00 15.8 5 Sur 12 Sudoeste 0 -- -- 65
2021-02-11 16:00:00 15.7 7 Sudoeste 18 Sudoeste 0 -- -- 65
2021-02-11 15:00:00 15.4 10 Sudoeste 15 Sudoeste 0 -- -- 65
2021-02-11 14:00:00 14.9 5 Sudoeste 18 Sudoeste 0 -- -- 66
2021-02-11 13:00:00 12.8 7 Sudoeste 18 Oeste 0 -- -- 72
2021-02-11 12:00:00 11.2 9 Sudoeste 21 Oeste 0 -- -- 74
2021-02-11 11:00:00 9.9 0 Calma 5 Oeste 0 -- -- 85
2021-02-11 10:00:00 7.6 2 Sudoeste 9 Sudoeste 0 -- -- 85
2021-02-11 09:00:00 6.2 0 Calma 4 Nordeste 0 -- -- 87
2021-02-11 08:00:00 4.8 0 Calma 3 Nordeste 0 -- -- 91
2021-02-11 07:00:00 4.1 0 Calma 3 Nordeste 0 -- -- 94
2021-02-11 06:00:00 3.2 0 Calma 3 Nordeste 0 -- -- 96
2021-02-11 05:00:00 3.2 0 Calma 4 Noroeste 0 -- -- 100
2021-02-11 04:00:00 3.2 0 Calma 2 Oeste 0 -- -- 100
2021-02-11 03:00:00 3.1 0 Calma 2 Oeste 0 -- -- 100
2021-02-11 02:00:00 3.2 0 Calma 4 Sur 0 -- -- 100
2021-02-11 01:00:00 4 0 Calma 2 Sur 0 -- -- 98
2021-02-11 00:00:00 4.9 0 Calma 2 Sur 0 -- -- 97
2021-02-10 23:00:00 5.7 0 Calma 3 Sur 0 -- -- 96
2021-02-10 22:00:00 6.8 0 Calma 2 Sur 0 -- -- 93
2021-02-10 21:00:00 7 0 Calma 2 Sur 0 -- -- 92
2021-02-10 20:00:00 7.1 0 Calma 4 Oeste 0 -- -- 91
2021-02-10 19:00:00 7.5 0 Calma 5 Noroeste 0 -- -- 88
2021-02-10 18:00:00 8 0 Calma 10 Nordeste 0 -- -- 85
2021-02-10 17:00:00 8.4 5 Este 10 Nordeste 0 -- -- 86
2021-02-10 16:00:00 7.4 2 Nordeste 14 Norte 0.2 -- -- 90
2021-02-10 15:00:00 7.3 3 Este 12 Norte 0.2 -- -- 91
2021-02-10 14:00:00 7.2 2 Sur 9 Norte 0 -- -- 89
2021-02-10 13:00:00 7.1 3 Este 24 Sudoeste 0 -- -- 83
2021-02-10 12:00:00 6.8 3 Sudeste 17 Sur 0.2 -- -- 80
2021-02-10 11:00:00 6.9 5 Sudoeste 11 Sur 0 -- -- 82
2021-02-10 10:00:00 6.1 0 Calma 17 Nordeste 0 -- -- 93
2021-02-10 09:00:00 5.4 3 Sudeste 16 Oeste 0 -- -- 93
2021-02-10 08:00:00 5.1 3 Sudoeste 12 Sudoeste 0.2 -- -- 92
2021-02-10 07:00:00 5.6 6 Oeste 15 Noroeste 1 -- -- 89
2021-02-10 06:00:00 5.3 2 Oeste 19 Sudoeste 1 -- -- 90
2021-02-10 05:00:00 5.5 0 Calma 6 Sudoeste 0 -- -- 81
2021-02-10 04:00:00 7.2 6 Sudoeste 21 Sudoeste 0 -- -- 68
2021-02-10 03:00:00 7.3 13 Sudoeste 29 Sur 0 -- -- 66
2021-02-10 02:00:00 7.4 12 Oeste 26 Sudoeste 0 -- -- 66
2021-02-10 01:00:00 6.5 5 Sudoeste 28 Sur 0 -- -- 77
2021-02-10 00:00:00 7.1 14 Sur 26 Sudoeste 0 -- -- 78
2021-02-09 23:00:00 7.5 9 Sudoeste 22 Sudoeste 0 -- -- 71
2021-02-09 22:00:00 6.4 6 Sudoeste 17 Sudoeste 0 -- -- 76
2021-02-09 21:00:00 5.2 3 Este 11 Norte 0 -- -- 83
2021-02-09 20:00:00 6.3 0 Calma 16 Sudoeste 0 -- -- 74
2021-02-09 19:00:00 7.4 4 Sudoeste 32 Oeste 0 -- -- 68
2021-02-09 18:00:00 9 11 Sudoeste 36 Noroeste 0 -- -- 58
2021-02-09 17:00:00 8.8 14 Sudoeste 25 Sudoeste 0 -- -- 75
2021-02-09 16:00:00 8 9 Sudoeste 28 Noroeste 1.2 -- -- 91
2021-02-09 15:00:00 8.4 7 Sur 21 Sur 0.4 -- -- 88
2021-02-09 14:00:00 8.3 6 Sur 27 Sur 0.2 -- -- 85
2021-02-09 13:00:00 8.6 12 Sur 51 Sudoeste 0 -- -- 78
2021-02-09 12:00:00 8.2 26 Sudoeste 59 Sudoeste 0 -- -- 76
2021-02-09 11:00:00 7.4 26 Sudoeste 51 Sudoeste 0 -- -- 77
2021-02-09 10:00:00 7.6 22 Sudoeste 49 Sur 0 -- -- 78
2021-02-09 09:00:00 7.8 23 Sudoeste 42 Sudoeste 0 -- -- 78
2021-02-09 08:00:00 7.3 13 Sudoeste 22 Sudoeste 0 -- -- 83
2021-02-09 07:00:00 7.7 5 Sudoeste 32 Sudoeste 0 -- -- 82
2021-02-09 06:00:00 8.9 15 Sudoeste 31 Oeste 0 -- -- 72
2021-02-09 05:00:00 8.3 12 Sudoeste 29 Oeste 0 -- -- 76
2021-02-09 04:00:00 7.5 6 Sudoeste 21 Sudoeste 0 -- -- 81
2021-02-09 03:00:00 5.7 4 Sudeste 8 Este 0 -- -- 94
2021-02-09 02:00:00 5 0 Calma 4 Este 0 -- -- 99
2021-02-09 01:00:00 5.4 0 Calma 4 Este 0 -- -- 97
2021-02-09 00:00:00 6.4 0 Calma 4 Este 0 -- -- 99
2021-02-08 23:00:00 6.3 0 Calma 5 Este 0 -- -- 99
2021-02-08 22:00:00 6.5 0 Calma 5 Este 0 -- -- 100
2021-02-08 21:00:00 6.3 0 Calma 3 Este 0 -- -- 100
2021-02-08 20:00:00 6.2 0 Calma 3 Este 0 -- -- 100
2021-02-08 19:00:00 6.2 0 Calma 3 Este 0 -- -- 98
2021-02-08 18:00:00 6.6 0 Calma 6 Este 0.2 -- -- 97
2021-02-08 17:00:00 7.3 2 Este 21 Norte 2.6 -- -- 93
2021-02-08 16:00:00 11.3 5 Oeste 15 Oeste 0 -- -- 70
2021-02-08 15:00:00 10.2 5 Oeste 12 Sudoeste 0 -- -- 78
2021-02-08 14:00:00 9 5 Sudoeste 9 Sudoeste 0 -- -- 88
2021-02-08 13:00:00 8.2 0 Calma 5 Este 0.2 -- -- 97
2021-02-08 12:00:00 6.6 0 Calma 5 Nordeste 2.8 -- -- 100
2021-02-08 11:00:00 6 0 Calma 5 Noroeste 4.2 -- -- 100
2021-02-08 10:00:00 5.8 0 Calma 5 Noroeste 4.4 -- -- 99
2021-02-08 09:00:00 6 0 Calma 13 Sudoeste 0.8 -- -- 96
2021-02-08 08:00:00 6.9 3 Oeste 14 Sudoeste 0 -- -- 87
2021-02-08 07:00:00 6.8 4 Sudoeste 18 Sudoeste 0 -- -- 90
2021-02-08 06:00:00 7.5 10 Sudoeste 29 Sudoeste 0.2 -- -- 85
2021-02-08 05:00:00 7.8 17 Sudoeste 26 Sudoeste 0.2 -- -- 83
2021-02-08 04:00:00 8.3 12 Sudoeste 27 Sudoeste 0.2 -- -- 82
2021-02-08 03:00:00 7 4 Sudoeste 14 Oeste 0 -- -- 86
2021-02-08 02:00:00 6.4 7 Oeste 23 Sur 0 -- -- 87
2021-02-08 01:00:00 5.5 5 Sudoeste 13 Sudoeste 0 -- -- 92
2021-02-08 00:00:00 5.3 4 Oeste 12 Oeste 0.2 -- -- 96
2021-02-07 23:00:00 5 0 Calma 4 Oeste 0.8 -- -- 99
2021-02-07 22:00:00 5.1 0 Calma 3 Oeste 0.4 -- -- 95
2021-02-07 21:00:00 5.5 0 Calma 2 Oeste 0 -- -- 86
2021-02-07 20:00:00 5.8 0 Calma 3 Oeste 0 -- -- 81
2021-02-07 19:00:00 6.6 0 Calma 16 Noroeste 0 -- -- 72
2021-02-07 18:00:00 7.3 5 Oeste 11 Oeste 0 -- -- 63
2021-02-07 17:00:00 7.7 5 Oeste 15 Sudoeste 0 -- -- 68
2021-02-07 16:00:00 8.5 5 Sudoeste 17 Sudoeste 0 -- -- 67
2021-02-07 15:00:00 7.9 3 Sudoeste 13 Noroeste 0 -- -- 75
2021-02-07 14:00:00 6.5 6 Oeste 18 Oeste 0 -- -- 80
2021-02-07 13:00:00 5.3 6 Oeste 18 Sudoeste 0.2 -- -- 89
2021-02-07 12:00:00 4.5 6 Sudoeste 18 Sudoeste 0.2 -- -- 94
2021-02-07 11:00:00 4.1 4 Sudoeste 17 Sudoeste 0.8 -- -- 97
2021-02-07 10:00:00 3.8 4 Sudoeste 8 Sur 0.4 -- -- 98
2021-02-07 09:00:00 3.7 3 Noroeste 9 Nordeste 0.6 -- -- 98
2021-02-07 08:00:00 3.7 3 Sudoeste 10 Sudoeste 0 -- -- 98
2021-02-07 07:00:00 3.4 4 Sudoeste 9 Oeste 0 -- -- 100
2021-02-07 06:00:00 3.3 2 Sudoeste 9 Noroeste 0.4 -- -- 99
2021-02-07 05:00:00 3.2 0 Calma 16 Norte 0.8 -- -- 98
2021-02-07 04:00:00 3.5 2 Sudoeste 9 Oeste 0.2 -- -- 98
2021-02-07 03:00:00 3.2 0 Calma 10 Este 0 -- -- 99
2021-02-07 02:00:00 3.2 0 Calma 8 Sudoeste 0.8 -- -- 100
2021-02-07 01:00:00 3.2 4 Sur 19 Oeste 2.2 -- -- 95
2021-02-07 00:00:00 3.7 6 Noroeste 20 Noroeste 2 -- -- 97
2021-02-06 23:00:00 4.4 6 Noroeste 18 Sur 0.4 -- -- 93
2021-02-06 22:00:00 4.7 3 Sudoeste 26 Noroeste 0.2 -- -- 94
2021-02-06 21:00:00 4.7 4 Sur 17 Sudoeste 1.2 -- -- 98
2021-02-06 20:00:00 5.3 4 Sur 15 Oeste 0.4 -- -- 97
2021-02-06 19:00:00 5.2 4 Este 15 Oeste 0.4 -- -- 97
2021-02-06 18:00:00 5.3 7 Sudoeste 36 Oeste 1 -- -- 91
2021-02-06 17:00:00 6.5 6 Sudoeste 27 Noroeste 2.2 -- -- 94
2021-02-06 16:00:00 6.8 6 Sudoeste 28 Sudoeste 3.4 -- -- 97
2021-02-06 15:00:00 7.5 7 Sudoeste 36 Oeste 6.4 -- -- 95
2021-02-06 14:00:00 8.8 5 Oeste 14 Oeste 2.8 -- -- 96
2021-02-06 13:00:00 8.7 7 Oeste 17 Oeste 1.4 -- -- 99
2021-02-06 12:00:00 8.4 0 Calma 4 Sur 0.6 -- -- 100
2021-02-06 11:00:00 8.2 0 Calma 2 Sur 0.4 -- -- 100
2021-02-06 10:00:00 8.1 0 Calma 0 Calma 0.8 -- -- 100
2021-02-06 09:00:00 8.1 0 Calma 2 Sur 0.6 -- -- 100
2021-02-06 08:00:00 8.1 0 Calma 4 Sudoeste 1.4 -- -- 100
2021-02-06 07:00:00 8.2 0 Calma 6 Oeste 0.8 -- -- 100
2021-02-06 06:00:00 8.3 2 Noroeste 9 Nordeste 0.2 -- -- 100
2021-02-06 05:00:00 8.4 3 Este 13 Nordeste 0 -- -- 100
2021-02-06 04:00:00 8.1 0 Calma 5 Nordeste 0 -- -- 100
2021-02-06 03:00:00 8.3 2 Norte 5 Nordeste 0 -- -- 100
2021-02-06 02:00:00 8.4 0 Calma 6 Nordeste 0 -- -- 100
2021-02-06 01:00:00 8.4 2 Nordeste 6 Norte 0 -- -- 100
2021-02-06 00:00:00 8.5 0 Calma 7 Nordeste 0 -- -- 100
2021-02-05 23:00:00 8.6 0 Calma 7 Norte 0 -- -- 100
2021-02-05 22:00:00 8.7 0 Calma 5 Norte 0.2 -- -- 100
2021-02-05 21:00:00 8.7 2 Norte 6 Norte 0 -- -- 100
2021-02-05 20:00:00 8.9 2 Norte 10 Noroeste 0.2 -- -- 100
2021-02-05 19:00:00 9.2 0 Calma 8 Noroeste 0 -- -- 100
2021-02-05 18:00:00 10 4 Norte 12 Norte 0 -- -- 97
2021-02-05 17:00:00 11.5 3 Norte 14 Norte 0 -- -- 90
2021-02-05 16:00:00 12.8 0 Calma 8 Nordeste 0 -- -- 86
2021-02-05 15:00:00 12 3 Este 11 Norte 0 -- -- 90
2021-02-05 14:00:00 12.2 3 Nordeste 9 Nordeste 0 -- -- 88
2021-02-05 13:00:00 11.2 2 Nordeste 10 Este 0 -- -- 90
2021-02-05 12:00:00 10.1 2 Este 12 Sudeste 0 -- -- 95
2021-02-05 11:00:00 9.2 2 Nordeste 6 Este 0 -- -- 100
2021-02-05 10:00:00 8.6 0 Calma 4 Este 0 -- -- 100
2021-02-05 09:00:00 8.4 0 Calma 4 Noroeste 0 -- -- 100
2021-02-05 08:00:00 8.1 0 Calma 5 Noroeste 0 -- -- 100
2021-02-05 07:00:00 8.3 0 Calma 4 Noroeste 0 -- -- 100
2021-02-05 06:00:00 8.3 0 Calma 6 Sur 0.4 -- -- 100
2021-02-05 05:00:00 8.3 3 Sudoeste 9 Oeste 0 -- -- 100
2021-02-05 04:00:00 8 2 Oeste 4 Oeste 0 -- -- 100
2021-02-05 03:00:00 8.1 0 Calma 3 Noroeste 0 -- -- 100
2021-02-05 02:00:00 8.6 0 Calma 4 Noroeste 0 -- -- 100
2021-02-05 01:00:00 9.3 0 Calma 4 Nordeste 0 -- -- 99
2021-02-05 00:00:00 9.8 0 Calma 5 Norte 0 -- -- 99
2021-02-04 23:00:00 10 0 Calma 8 Noroeste 0 -- -- 97
2021-02-04 22:00:00 10 0 Calma 8 Norte 0 -- -- 95
2021-02-04 21:00:00 10.1 0 Calma 6 Noroeste 0 -- -- 93
2021-02-04 20:00:00 11 0 Calma 7 Norte 0 -- -- 91
2021-02-04 19:00:00 11.9 2 Nordeste 10 Este 0 -- -- 85
2021-02-04 18:00:00 13.4 3 Nordeste 8 Sudoeste 0 -- -- 76
2021-02-04 17:00:00 14.5 3 Sudoeste 15 Sudoeste 0 -- -- 68
2021-02-04 16:00:00 13.8 4 Este 13 Sudeste 0 -- -- 73
2021-02-04 15:00:00 13.3 3 Este 10 Sur 0.2 -- -- 75
2021-02-04 14:00:00 12.7 5 Sur 11 Sur 0 -- -- 75
2021-02-04 13:00:00 12.4 10 Sur 26 Sudoeste 0 -- -- 76
2021-02-04 12:00:00 12.1 9 Sur 26 Sur 0 -- -- 78
2021-02-04 11:00:00 11.6 6 Sudoeste 28 Sur 0 -- -- 80
2021-02-04 10:00:00 11.6 16 Sudoeste 29 Sudoeste 0.2 -- -- 80
2021-02-04 09:00:00 11.9 12 Sudoeste 24 Sudoeste 0 -- -- 79
2021-02-04 08:00:00 11.8 12 Sudoeste 25 Sudoeste 0 -- -- 79
2021-02-04 07:00:00 11.7 12 Sudoeste 30 Sudoeste 0 -- -- 79
2021-02-04 06:00:00 11.8 13 Sudoeste 28 Sur 0 -- -- 77
2021-02-04 05:00:00 11.7 11 Sur 31 Sudoeste 0 -- -- 79
2021-02-04 04:00:00 11.6 11 Sur 28 Sudoeste 0 -- -- 80
2021-02-04 03:00:00 11.6 11 Sudoeste 23 Sudoeste 0 -- -- 79
2021-02-04 02:00:00 11.2 7 Oeste 24 Sudoeste 0 -- -- 83
2021-02-04 01:00:00 11.1 11 Sudoeste 26 Sudeste 0.2 -- -- 86
2021-02-04 00:00:00 11.2 10 Sur 27 Sudoeste 0 -- -- 86